createdAt,value
2022-09-04T00:02:50.825Z,76.71
2022-09-04T00:05:48.860Z,76.79
2022-09-04T00:08:55.871Z,76.75
2022-09-04T00:11:54.282Z,77.01
2022-09-04T00:14:51.986Z,77.10
2022-09-04T00:17:51.871Z,76.84
2022-09-04T00:20:48.859Z,77.18
2022-09-04T00:23:44.873Z,76.71
2022-09-04T00:26:50.257Z,76.84
2022-09-04T00:29:49.506Z,77.33
2022-09-04T00:32:46.060Z,76.88
2022-09-04T00:35:40.955Z,76.76
2022-09-04T00:38:39.229Z,77.28
2022-09-04T00:41:33.428Z,77.34
2022-09-04T00:44:53.005Z,77.56
2022-09-04T00:48:09.110Z,77.44
2022-09-04T00:51:30.762Z,77.49
2022-09-04T00:54:53.044Z,77.37
2022-09-04T00:58:02.249Z,77.02
2022-09-04T01:00:57.908Z,77.12
2022-09-04T01:04:16.373Z,77.41
2022-09-04T01:07:24.616Z,77.65
2022-09-04T01:10:31.124Z,77.56
2022-09-04T01:13:33.898Z,77.82
2022-09-04T01:16:33.815Z,78.00
2022-09-04T01:19:47.950Z,77.81
2022-09-04T01:22:58.908Z,77.70
2022-09-04T01:26:02.018Z,77.50
2022-09-04T01:29:07.259Z,77.28
2022-09-04T01:32:09.118Z,77.42
2022-09-04T01:35:09.903Z,77.46
2022-09-04T01:38:12.636Z,76.88
2022-09-04T01:41:14.305Z,76.62
2022-09-04T01:44:08.353Z,76.80
2022-09-04T01:47:12.006Z,77.24
2022-09-04T01:50:10.688Z,77.08
2022-09-04T01:53:10.284Z,76.46
2022-09-04T01:56:13.843Z,77.11
2022-09-04T01:59:13.196Z,77.17
2022-09-04T02:02:14.351Z,77.18
2022-09-04T02:05:14.502Z,77.42
2022-09-04T02:08:21.363Z,77.21
2022-09-04T02:11:18.172Z,77.24
2022-09-04T02:14:22.880Z,76.85
2022-09-04T02:17:18.212Z,76.91
2022-09-04T02:20:24.236Z,77.11
2022-09-04T02:23:26.394Z,76.99
2022-09-04T02:26:25.043Z,76.02
2022-09-04T02:29:23.466Z,76.59
2022-09-04T02:32:20.228Z,76.86
2022-09-04T02:35:21.166Z,76.87
2022-09-04T02:38:23.339Z,76.86
2022-09-04T02:41:27.309Z,76.63
2022-09-04T02:44:36.745Z,77.05
2022-09-04T02:47:36.254Z,77.16
2022-09-04T02:50:42.074Z,77.00
2022-09-04T02:53:40.020Z,76.79
2022-09-04T02:56:43.670Z,77.06
2022-09-04T02:59:47.569Z,77.40
2022-09-04T03:02:44.724Z,77.49
2022-09-04T03:05:42.936Z,77.49
2022-09-04T03:08:39.081Z,77.39
2022-09-04T03:11:36.314Z,77.46
2022-09-04T03:14:34.633Z,77.79
2022-09-04T03:17:34.023Z,77.91
2022-09-04T03:20:27.514Z,78.16
2022-09-04T03:23:22.000Z,78.11
2022-09-04T03:26:21.524Z,78.17
2022-09-04T03:29:25.720Z,78.39
2022-09-04T03:32:23.957Z,78.50
2022-09-04T03:35:25.764Z,78.63
2022-09-04T03:38:24.799Z,78.97
2022-09-04T03:41:30.572Z,78.69
2022-09-04T03:44:32.699Z,78.93
2022-09-04T03:47:34.798Z,79.02
2022-09-04T03:50:35.483Z,79.10
2022-09-04T03:53:34.290Z,79.34
2022-09-04T03:56:43.628Z,79.50
2022-09-04T03:59:47.569Z,79.44
2022-09-04T04:02:55.246Z,79.73
2022-09-04T04:06:00.270Z,80.08
2022-09-04T04:09:11.742Z,80.46
2022-09-04T04:12:34.205Z,80.61
2022-09-04T04:15:38.403Z,80.51
2022-09-04T04:18:44.430Z,80.58
2022-09-04T04:21:56.058Z,80.57
2022-09-04T04:25:06.257Z,80.83
2022-09-04T04:28:17.271Z,81.03
2022-09-04T04:31:20.025Z,81.09
2022-09-04T04:34:20.863Z,81.53
2022-09-04T04:37:19.407Z,81.92
2022-09-04T04:40:21.353Z,82.06
2022-09-04T04:43:19.375Z,82.41
2022-09-04T04:46:22.322Z,82.31
2022-09-04T04:49:28.469Z,82.49
2022-09-04T04:52:33.618Z,82.20
2022-09-04T04:55:39.017Z,82.21
2022-09-04T04:58:53.759Z,82.05
2022-09-04T05:01:57.416Z,81.67
2022-09-04T05:04:58.110Z,81.84
2022-09-04T05:08:03.904Z,81.74
2022-09-04T05:11:06.327Z,81.49
2022-09-04T05:14:08.123Z,81.13
2022-09-04T05:17:08.291Z,80.62
2022-09-04T05:20:24.606Z,80.38
2022-09-04T05:23:28.834Z,79.39
2022-09-04T05:26:28.865Z,78.39
2022-09-04T05:29:32.284Z,78.29
2022-09-04T05:32:32.402Z,77.62
2022-09-04T05:35:35.316Z,77.06
2022-09-04T05:38:34.012Z,75.85
2022-09-04T05:41:39.574Z,75.57
2022-09-04T05:44:40.009Z,75.35
2022-09-04T05:47:49.816Z,74.59
2022-09-04T05:51:06.038Z,73.84
2022-09-04T05:54:21.704Z,72.16
2022-09-04T05:57:29.299Z,71.72
2022-09-04T06:00:21.968Z,71.36
2022-09-04T06:03:45.113Z,70.63
2022-09-04T06:06:43.615Z,69.73
2022-09-04T06:09:47.522Z,69.16
2022-09-04T06:13:22.501Z,68.66
2022-09-04T06:16:29.507Z,67.78
2022-09-04T06:19:41.728Z,67.33
2022-09-04T06:22:57.050Z,66.65
2022-09-04T06:26:16.447Z,66.49
2022-09-04T06:29:33.960Z,65.87
2022-09-04T06:32:57.752Z,66.01
2022-09-04T06:36:13.029Z,65.17
2022-09-04T06:39:22.639Z,64.59
2022-09-04T06:42:30.937Z,63.78
2022-09-04T06:45:32.118Z,63.61
2022-09-04T06:48:35.073Z,63.13
2022-09-04T06:51:44.202Z,62.69
2022-09-04T06:54:47.436Z,62.23
2022-09-04T06:57:54.089Z,61.97
2022-09-04T07:00:53.504Z,61.37
2022-09-04T07:03:59.604Z,59.92
2022-09-04T07:07:04.755Z,60.37
2022-09-04T07:10:01.759Z,59.95
2022-09-04T07:13:11.768Z,58.69
2022-09-04T07:16:31.766Z,59.57
2022-09-04T07:19:58.612Z,59.58
2022-09-04T07:23:23.397Z,59.71
2022-09-04T07:26:28.564Z,59.48
2022-09-04T07:29:34.632Z,58.59
2022-09-04T07:32:31.971Z,58.12
2022-09-04T07:35:31.475Z,58.53
2022-09-04T07:38:32.761Z,58.07
2022-09-04T07:41:32.842Z,57.40
2022-09-04T07:44:35.345Z,57.41
2022-09-04T07:47:35.451Z,56.52
2022-09-04T07:50:33.059Z,55.92
2022-09-04T07:53:40.354Z,54.96
2022-09-04T07:56:45.799Z,52.31
2022-09-04T07:59:52.359Z,51.58
2022-09-04T08:03:01.540Z,46.39
2022-09-04T08:05:59.773Z,41.82
2022-09-04T08:09:10.966Z,38.83
2022-09-04T08:12:27.749Z,38.34
2022-09-04T08:15:21.900Z,38.99
2022-09-04T08:18:38.050Z,43.71
2022-09-04T08:21:31.464Z,47.04
2022-09-04T08:24:54.102Z,48.70
2022-09-04T08:28:01.122Z,49.88
2022-09-04T08:30:57.647Z,50.65
2022-09-04T08:34:30.481Z,51.49
2022-09-04T08:37:26.905Z,51.65
2022-09-04T08:40:46.567Z,49.90
2022-09-04T08:44:20.480Z,50.46
2022-09-04T08:47:53.543Z,50.55
2022-09-04T08:51:26.625Z,51.78
2022-09-04T08:54:59.034Z,51.70
2022-09-04T08:58:27.161Z,51.19
2022-09-04T09:01:42.703Z,50.53
2022-09-04T09:05:05.205Z,50.74
2022-09-04T09:08:29.684Z,50.04
2022-09-04T09:12:02.242Z,50.75
2022-09-04T09:15:26.097Z,49.96
2022-09-04T09:18:36.050Z,49.91
2022-09-04T09:21:42.954Z,49.61
2022-09-04T09:25:23.179Z,49.35
2022-09-04T09:28:57.407Z,49.55
2022-09-04T09:32:21.437Z,49.94
2022-09-04T09:35:57.976Z,49.39
2022-09-04T09:39:24.980Z,49.71
2022-09-04T09:42:50.836Z,48.96
2022-09-04T09:46:09.932Z,48.91
2022-09-04T09:49:36.463Z,48.89
2022-09-04T09:52:49.955Z,48.76
2022-09-04T09:56:11.938Z,48.31
2022-09-04T09:59:19.724Z,48.10
2022-09-04T10:02:40.381Z,47.98
2022-09-04T10:06:03.994Z,47.85
2022-09-04T10:09:31.218Z,47.37
2022-09-04T10:13:25.424Z,47.37
2022-09-04T10:16:44.813Z,47.53
2022-09-04T10:20:08.537Z,47.01
2022-09-04T10:23:32.498Z,46.31
2022-09-04T10:26:43.665Z,47.30
2022-09-04T10:29:50.398Z,46.38
2022-09-04T10:33:12.230Z,46.31
2022-09-04T10:36:18.516Z,46.13
2022-09-04T10:39:40.803Z,45.16
2022-09-04T10:42:41.928Z,45.04
2022-09-04T10:45:39.918Z,45.50
2022-09-04T10:49:07.855Z,45.43
2022-09-04T10:52:34.252Z,44.19
2022-09-04T10:55:36.334Z,44.42
2022-09-04T10:59:03.390Z,44.91
2022-09-04T11:02:16.657Z,44.40
2022-09-04T11:05:34.990Z,44.39
2022-09-04T11:09:06.804Z,44.04
2022-09-04T11:12:21.790Z,43.42
2022-09-04T11:15:39.422Z,43.58
2022-09-04T11:18:53.570Z,43.40
2022-09-04T11:22:17.097Z,43.71
2022-09-04T11:26:02.860Z,43.30
2022-09-04T11:29:20.401Z,43.20
2022-09-04T11:32:27.202Z,43.08
2022-09-04T11:35:39.993Z,43.29
2022-09-04T11:39:10.087Z,43.14
2022-09-04T11:42:21.694Z,43.71
2022-09-04T11:45:44.618Z,43.18
2022-09-04T11:49:00.645Z,42.17
2022-09-04T11:52:04.838Z,42.49
2022-09-04T11:55:16.884Z,42.83
2022-09-04T11:58:32.429Z,43.28
2022-09-04T12:01:47.781Z,43.20
2022-09-04T12:05:01.111Z,43.09
2022-09-04T12:08:07.627Z,42.68
2022-09-04T12:11:19.572Z,43.06
2022-09-04T12:14:32.173Z,42.66
2022-09-04T12:18:02.621Z,42.39
2022-09-04T12:21:15.678Z,42.49
2022-09-04T12:24:34.065Z,42.21
2022-09-04T12:28:33.898Z,41.77
2022-09-04T12:31:47.057Z,41.53
2022-09-04T12:35:12.843Z,41.72
2022-09-04T12:38:36.107Z,41.09
2022-09-04T12:41:36.535Z,40.76
2022-09-04T12:44:43.410Z,41.10
2022-09-04T12:47:51.858Z,41.00
2022-09-04T12:50:53.033Z,40.62
2022-09-04T12:54:01.759Z,40.26
2022-09-04T12:57:08.147Z,40.79
2022-09-04T13:00:08.228Z,39.68
2022-09-04T13:03:11.756Z,40.44
2022-09-04T13:06:21.561Z,39.94
2022-09-04T13:09:25.353Z,40.39
2022-09-04T13:12:28.281Z,40.31
2022-09-04T13:15:28.285Z,40.80
2022-09-04T13:18:34.883Z,41.00
2022-09-04T13:21:43.295Z,40.82
2022-09-04T13:24:51.279Z,40.02
2022-09-04T13:27:58.279Z,39.22
2022-09-04T13:31:00.010Z,40.14
2022-09-04T13:34:04.672Z,39.48
2022-09-04T13:37:07.868Z,38.31
2022-09-04T13:40:20.784Z,39.37
2022-09-04T13:43:38.525Z,39.64
2022-09-04T13:46:35.977Z,39.71
2022-09-04T13:49:33.878Z,39.37
2022-09-04T13:52:29.997Z,39.66
2022-09-04T13:55:24.797Z,39.58
2022-09-04T13:58:20.091Z,38.96
2022-09-04T14:01:21.687Z,38.41
2022-09-04T14:04:17.405Z,38.15
2022-09-04T14:07:18.674Z,37.96
2022-09-04T14:10:14.275Z,37.75
2022-09-04T14:13:23.296Z,38.18
2022-09-04T14:16:16.122Z,38.32
2022-09-04T14:19:20.269Z,37.99
2022-09-04T14:22:24.653Z,38.54
2022-09-04T14:25:22.276Z,38.99
2022-09-04T14:28:22.346Z,38.72
2022-09-04T14:31:24.277Z,38.70
2022-09-04T14:34:27.704Z,38.78
2022-09-04T14:37:36.094Z,38.29
2022-09-04T14:40:31.966Z,38.80
2022-09-04T14:43:35.961Z,38.98
2022-09-04T14:46:38.316Z,38.96
2022-09-04T14:49:31.751Z,38.47
2022-09-04T14:52:28.283Z,38.68
2022-09-04T14:55:26.230Z,38.62
2022-09-04T14:58:24.041Z,39.18
2022-09-04T15:01:20.787Z,39.46
2022-09-04T15:04:21.299Z,39.52
2022-09-04T15:07:49.544Z,39.23
2022-09-04T15:10:50.562Z,39.27
2022-09-04T15:13:53.878Z,39.07
2022-09-04T15:16:50.606Z,38.99
2022-09-04T15:19:51.678Z,39.54
2022-09-04T15:22:48.102Z,39.82
2022-09-04T15:25:59.218Z,38.48
2022-09-04T15:28:57.336Z,38.50
2022-09-04T15:31:49.509Z,38.56
2022-09-04T15:34:41.327Z,39.09
2022-09-04T15:37:35.041Z,38.97
2022-09-04T15:40:33.058Z,39.05
2022-09-04T15:43:29.274Z,38.76
2022-09-04T15:46:34.952Z,38.96
2022-09-04T15:49:39.950Z,39.69
2022-09-04T15:52:40.230Z,39.29
2022-09-04T15:55:35.677Z,39.67
2022-09-04T15:58:31.202Z,39.43
2022-09-04T16:01:27.520Z,38.66
2022-09-04T16:04:26.209Z,39.01
2022-09-04T16:07:37.502Z,39.52
2022-09-04T16:10:42.937Z,39.75
2022-09-04T16:13:44.009Z,39.38
2022-09-04T16:16:43.427Z,39.41
2022-09-04T16:19:43.048Z,39.34
2022-09-04T16:22:39.951Z,39.39
2022-09-04T16:25:38.576Z,39.60
2022-09-04T16:28:32.670Z,39.41
2022-09-04T16:31:30.835Z,39.20
2022-09-04T16:34:26.576Z,39.63
2022-09-04T16:37:23.791Z,39.70
2022-09-04T16:40:25.878Z,39.63
2022-09-04T16:43:27.372Z,40.19
2022-09-04T16:46:27.954Z,40.80
2022-09-04T16:49:26.946Z,41.20
2022-09-04T16:52:35.061Z,41.25
2022-09-04T16:55:32.106Z,41.73
2022-09-04T16:58:40.105Z,41.88
2022-09-04T17:01:43.746Z,41.70
2022-09-04T17:04:40.195Z,41.71
2022-09-04T17:07:37.617Z,41.79
2022-09-04T17:10:36.628Z,42.23
2022-09-04T17:13:36.227Z,42.34
2022-09-04T17:16:34.092Z,42.72
2022-09-04T17:19:27.797Z,43.16
2022-09-04T17:28:56.116Z,43.06
2022-09-04T17:29:18.800Z,43.09
2022-09-04T17:29:36.378Z,43.17
2022-09-04T17:37:18.867Z,43.61
2022-09-04T17:40:44.478Z,43.45
2022-09-04T17:40:53.292Z,43.75
2022-09-04T17:42:34.352Z,44.20
2022-09-04T17:45:39.002Z,44.59
2022-09-04T17:48:41.327Z,44.58
2022-09-04T17:51:34.775Z,44.78
2022-09-04T17:54:29.869Z,45.17
2022-09-04T17:57:28.544Z,45.64
2022-09-04T18:00:23.962Z,46.11
2022-09-04T18:03:26.449Z,46.18
2022-09-04T18:06:23.983Z,46.13
2022-09-04T18:09:26.814Z,46.53
2022-09-04T18:12:31.333Z,46.92
2022-09-04T18:15:33.843Z,46.76
2022-09-04T18:18:39.498Z,47.09
2022-09-04T18:21:41.577Z,46.55
2022-09-04T18:24:36.831Z,46.85
2022-09-04T18:27:36.114Z,46.90
2022-09-04T18:37:05.198Z,46.78
2022-09-04T18:37:20.409Z,46.44
2022-09-04T18:37:24.927Z,47.08
2022-09-04T18:40:36.098Z,46.98
2022-09-04T18:50:34.465Z,47.59
2022-09-04T18:50:39.755Z,47.02
2022-09-04T18:51:14.638Z,47.67
2022-09-04T18:53:52.136Z,47.75
2022-09-04T18:56:45.393Z,47.75
2022-09-04T18:59:43.403Z,47.89
2022-09-04T19:02:50.779Z,47.89
2022-09-04T19:05:50.902Z,47.94
2022-09-04T19:08:48.568Z,47.94
2022-09-04T19:11:47.727Z,48.21
2022-09-04T19:14:42.830Z,48.62
2022-09-04T19:17:39.390Z,48.83
2022-09-04T19:20:44.376Z,48.62
2022-09-04T19:23:41.510Z,48.71
2022-09-04T19:26:37.408Z,48.56
2022-09-04T19:29:32.120Z,48.79
2022-09-04T19:32:27.674Z,49.03
2022-09-04T19:35:23.571Z,49.31
2022-09-04T19:41:00.182Z,49.21
2022-09-04T19:46:07.119Z,49.27
2022-09-04T19:46:17.918Z,49.43
2022-09-04T19:48:20.770Z,49.83
2022-09-04T19:53:23.203Z,49.54
2022-09-04T19:54:34.505Z,49.55
2022-09-04T19:57:33.883Z,49.68
2022-09-04T20:00:42.378Z,50.06
2022-09-04T20:03:46.363Z,50.17
2022-09-04T20:06:47.036Z,50.15
2022-09-04T20:09:44.835Z,50.52
2022-09-04T20:12:50.648Z,50.79
2022-09-04T20:15:45.989Z,50.99
2022-09-04T20:18:44.311Z,51.08
2022-09-04T20:21:45.227Z,51.47
2022-09-04T20:25:01.228Z,51.46
2022-09-04T20:28:08.677Z,51.54
2022-09-04T20:31:36.183Z,51.77
2022-09-04T20:34:36.418Z,52.09
2022-09-04T20:37:33.014Z,51.97
2022-09-04T20:40:31.536Z,51.94
2022-09-04T20:43:32.172Z,51.78
2022-09-04T20:52:42.609Z,52.01
2022-09-04T20:52:52.039Z,52.06
2022-09-04T20:53:17.953Z,52.40
2022-09-04T20:57:37.387Z,52.35
2022-09-04T21:03:10.665Z,52.60
2022-09-04T21:03:27.872Z,52.17
2022-09-04T21:06:30.943Z,52.22
2022-09-04T21:09:38.775Z,52.30
2022-09-04T21:13:13.336Z,52.45
2022-09-04T21:16:23.407Z,52.72
2022-09-04T21:19:30.535Z,52.92
2022-09-04T21:22:34.880Z,53.67
2022-09-04T21:25:36.592Z,53.81
2022-09-04T21:28:47.440Z,54.25
2022-09-04T21:32:04.460Z,54.29
2022-09-04T21:35:04.115Z,54.45
2022-09-04T21:38:11.438Z,54.76
2022-09-04T21:41:24.371Z,55.10
2022-09-04T21:44:52.124Z,55.58
2022-09-04T21:48:23.727Z,55.71
2022-09-04T21:51:42.723Z,56.20
2022-09-04T21:56:27.556Z,56.19
2022-09-04T22:02:27.989Z,56.12
2022-09-04T22:02:40.458Z,56.41
2022-09-04T22:05:19.298Z,56.64
2022-09-04T22:13:26.341Z,56.97
2022-09-04T22:13:43.096Z,56.79
2022-09-04T22:15:00.218Z,56.85
2022-09-04T22:18:07.082Z,57.09
2022-09-04T22:21:16.251Z,57.30
2022-09-04T22:24:48.466Z,57.11
2022-09-04T22:28:15.097Z,57.03
2022-09-04T22:31:30.182Z,57.27
2022-09-04T22:34:53.751Z,57.33
2022-09-04T22:38:29.940Z,57.64
2022-09-04T22:41:37.999Z,57.44
2022-09-04T22:44:49.071Z,57.70
2022-09-04T22:47:57.808Z,57.99
2022-09-04T22:51:00.690Z,57.98
2022-09-04T22:54:04.560Z,57.67
2022-09-04T22:57:01.168Z,57.82
2022-09-04T23:00:10.583Z,57.77
2022-09-04T23:03:32.951Z,57.75
2022-09-04T23:10:26.737Z,58.25
2022-09-04T23:13:50.065Z,58.19
2022-09-04T23:14:02.710Z,57.92
2022-09-04T23:17:06.314Z,58.41
2022-09-04T23:26:34.207Z,58.48
2022-09-04T23:26:42.856Z,58.50
2022-09-04T23:27:42.489Z,58.87
2022-09-04T23:30:42.717Z,59.00
2022-09-04T23:33:49.411Z,59.19
2022-09-04T23:37:26.436Z,59.05
2022-09-04T23:40:31.821Z,59.34
2022-09-04T23:44:12.328Z,59.43
2022-09-04T23:47:19.863Z,59.95
2022-09-04T23:50:42.230Z,60.48
2022-09-04T23:53:42.567Z,60.56
2022-09-04T23:56:36.589Z,60.46
2022-09-04T23:59:35.906Z,60.71
